createdAt,value
2023-01-19T00:01:47.713Z,99845.44
2023-01-19T00:04:17.907Z,99853.19
2023-01-19T00:06:48.034Z,99853.97
2023-01-19T00:09:18.204Z,99859.13
2023-01-19T00:11:48.328Z,99870.22
2023-01-19T00:14:18.442Z,99879.59
2023-01-19T00:16:48.695Z,99876.16
2023-01-19T00:19:18.903Z,99886.47
2023-01-19T00:21:49.114Z,99888.16
2023-01-19T00:24:19.426Z,99895.84
2023-01-19T00:26:57.993Z,99895.81
2023-01-19T00:29:34.542Z,99897.50
2023-01-19T00:32:06.920Z,99913.78
2023-01-19T00:34:39.756Z,99905.94
2023-01-19T00:37:10.668Z,99927.50
2023-01-19T00:39:40.969Z,99931.78
2023-01-19T00:42:32.904Z,99943.75
2023-01-19T00:45:03.019Z,99941.16
2023-01-19T00:47:33.524Z,99959.97
2023-01-19T00:50:04.059Z,99970.25
2023-01-19T00:52:34.247Z,99976.16
2023-01-19T00:55:05.124Z,99989.88
2023-01-19T00:57:35.432Z,99993.25
2023-01-19T01:00:09.068Z,99992.47
2023-01-19T01:02:41.603Z,100000.19
2023-01-19T01:05:12.633Z,100007.88
2023-01-19T01:07:44.746Z,100016.47
2023-01-19T01:10:24.327Z,100037.03
2023-01-19T01:12:57.612Z,100033.69
2023-01-19T01:15:30.133Z,100025.03
2023-01-19T01:18:00.309Z,100038.75
2023-01-19T01:20:31.276Z,100034.50
2023-01-19T01:23:01.786Z,100047.41
2023-01-19T01:25:35.469Z,100044.81
2023-01-19T01:28:08.803Z,100044.88
2023-01-19T01:30:41.150Z,100040.63
2023-01-19T01:33:14.107Z,100041.53
2023-01-19T01:35:44.294Z,100049.22
2023-01-19T01:38:14.425Z,100047.53
2023-01-19T01:40:44.940Z,100055.25
2023-01-19T01:43:16.916Z,100044.94
2023-01-19T01:45:47.478Z,100058.75
2023-01-19T01:48:30.907Z,100050.16
2023-01-19T01:51:24.876Z,100051.00
2023-01-19T01:54:00.728Z,100064.72
2023-01-19T01:56:44.061Z,100075.84
2023-01-19T01:59:26.307Z,100072.31
2023-01-19T02:02:18.226Z,100077.44
2023-01-19T02:05:00.619Z,100076.53
2023-01-19T02:08:00.927Z,100086.81
2023-01-19T02:10:50.576Z,100094.44
2023-01-19T02:13:21.386Z,100093.56
2023-01-19T02:15:54.790Z,100097.75
2023-01-19T02:18:28.705Z,100089.16
2023-01-19T02:21:26.445Z,100097.69
2023-01-19T02:23:59.116Z,100088.97
2023-01-19T02:26:37.916Z,100101.78
2023-01-19T02:29:11.719Z,100100.06
2023-01-19T02:31:42.649Z,100102.63
2023-01-19T02:34:16.187Z,100099.94
2023-01-19T02:36:56.360Z,100104.16
2023-01-19T02:39:33.639Z,100109.28
2023-01-19T02:42:17.325Z,100116.91
2023-01-19T02:44:50.569Z,100118.44
2023-01-19T02:47:20.854Z,100135.69
2023-01-19T02:49:57.992Z,100138.25
2023-01-19T02:52:28.210Z,100147.72
2023-01-19T02:55:18.314Z,100146.84
2023-01-19T02:58:05.550Z,100152.06
2023-01-19T03:01:24.046Z,100157.25
2023-01-19T03:04:22.756Z,100159.81
2023-01-19T03:07:01.058Z,100168.44
2023-01-19T03:09:58.553Z,100165.03
2023-01-19T03:12:51.997Z,100159.88
2023-01-19T03:15:40.385Z,100165.94
2023-01-19T03:18:15.044Z,100155.66
2023-01-19T03:20:46.454Z,100161.63
2023-01-19T03:23:17.684Z,100148.69
2023-01-19T03:25:50.260Z,100146.94
2023-01-19T03:28:24.311Z,100147.72
2023-01-19T03:31:00.755Z,100152.00
2023-01-19T03:33:35.370Z,100151.09
2023-01-19T03:36:13.920Z,100157.13
2023-01-19T03:38:46.993Z,100165.78
2023-01-19T03:41:19.844Z,100170.13
2023-01-19T03:43:52.156Z,100170.13
2023-01-19T03:46:24.235Z,100174.47
2023-01-19T03:48:55.254Z,100169.31
2023-01-19T03:51:25.678Z,100174.41
2023-01-19T03:53:55.791Z,100171.72
2023-01-19T03:56:26.291Z,100163.88
2023-01-19T03:58:57.063Z,100169.88
2023-01-19T04:01:27.418Z,100168.16
2023-01-19T04:03:58.577Z,100174.22
2023-01-19T04:06:28.735Z,100156.22
2023-01-19T04:09:06.761Z,100162.25
2023-01-19T04:11:36.909Z,100153.56
2023-01-19T04:14:07.122Z,100149.97
2023-01-19T04:16:37.288Z,100168.09
2023-01-19T04:19:07.408Z,100168.09
2023-01-19T04:21:37.605Z,100168.06
2023-01-19T04:24:09.143Z,100169.78
2023-01-19T04:26:39.443Z,100168.09
2023-01-19T04:29:09.932Z,100173.22
2023-01-19T04:31:40.119Z,100163.66
2023-01-19T04:34:10.492Z,100172.22
2023-01-19T04:36:40.628Z,100173.09
2023-01-19T04:39:11.856Z,100173.00
2023-01-19T04:41:41.986Z,100166.91
2023-01-19T04:44:12.153Z,100178.94
2023-01-19T04:46:42.374Z,100176.31
2023-01-19T04:49:12.511Z,100184.03
2023-01-19T04:51:42.696Z,100186.59
2023-01-19T04:54:12.868Z,100183.06
2023-01-19T04:56:43.277Z,100189.81
2023-01-19T04:59:13.899Z,100200.03
2023-01-19T05:01:44.193Z,100202.50
2023-01-19T05:04:14.520Z,100187.88
2023-01-19T05:06:44.623Z,100186.88
2023-01-19T05:09:15.523Z,100191.06
2023-01-19T05:11:46.486Z,100198.75
2023-01-19T05:14:16.636Z,100199.50
2023-01-19T05:16:46.791Z,100202.03
2023-01-19T05:19:16.976Z,100207.16
2023-01-19T05:21:47.187Z,100205.41
2023-01-19T05:24:17.345Z,100201.97
2023-01-19T05:26:47.548Z,100187.16
2023-01-19T05:29:17.637Z,100203.53
2023-01-19T05:31:48.508Z,100204.38
2023-01-19T05:34:18.890Z,100199.97
2023-01-19T05:36:50.023Z,100210.13
2023-01-19T05:39:20.568Z,100216.91
2023-01-19T05:41:50.862Z,100212.56
2023-01-19T05:44:22.758Z,100213.31
2023-01-19T05:46:53.098Z,100208.09
2023-01-19T05:49:23.377Z,100220.06
2023-01-19T05:51:53.546Z,100224.25
2023-01-19T05:54:24.009Z,100225.06
2023-01-19T05:56:54.326Z,100222.41
2023-01-19T05:59:24.515Z,100227.53
2023-01-19T06:01:55.063Z,100220.56
2023-01-19T06:04:25.640Z,100241.19
2023-01-19T06:06:55.771Z,100237.72
2023-01-19T06:09:27.497Z,100234.25
2023-01-19T06:11:59.601Z,100235.97
2023-01-19T06:14:29.762Z,100235.84
2023-01-19T06:16:59.919Z,100244.34
2023-01-19T06:19:30.367Z,100246.84
2023-01-19T06:22:01.072Z,100257.16
2023-01-19T06:24:31.299Z,100253.69
2023-01-19T06:27:01.422Z,100262.28
2023-01-19T06:29:31.593Z,100267.34
2023-01-19T06:32:01.879Z,100274.16
2023-01-19T06:34:32.047Z,100286.19
2023-01-19T06:37:02.115Z,100292.97
2023-01-19T06:39:32.331Z,100299.81
2023-01-19T06:42:02.368Z,100311.81
2023-01-19T06:44:32.614Z,100318.66
2023-01-19T06:47:15.151Z,100319.44
2023-01-19T06:49:46.232Z,100310.72
2023-01-19T06:52:17.696Z,100320.28
2023-01-19T06:54:47.880Z,100319.47
2023-01-19T06:57:19.924Z,100323.66
2023-01-19T06:59:50.056Z,100326.22
2023-01-19T07:02:27.360Z,100331.34
2023-01-19T07:04:58.198Z,100348.44
2023-01-19T07:07:28.382Z,100356.13
2023-01-19T07:09:58.623Z,100361.38
2023-01-19T07:12:30.673Z,100373.38
2023-01-19T07:15:00.895Z,100375.03
2023-01-19T07:17:31.115Z,100374.19
2023-01-19T07:20:01.923Z,100382.00
2023-01-19T07:22:32.065Z,100386.47
2023-01-19T07:25:02.220Z,100384.63
2023-01-19T07:27:32.303Z,100398.59
2023-01-19T07:30:02.602Z,100385.66
2023-01-19T07:32:32.735Z,100386.59
2023-01-19T07:35:02.990Z,100403.09
2023-01-19T07:37:33.100Z,100410.00
2023-01-19T07:40:04.013Z,100408.19
2023-01-19T07:42:34.159Z,100426.44
2023-01-19T07:45:07.441Z,100423.13
2023-01-19T07:47:40.061Z,100420.50
2023-01-19T07:50:17.596Z,100438.69
2023-01-19T07:52:50.732Z,100430.94
2023-01-19T07:55:22.603Z,100440.47
2023-01-19T07:57:52.781Z,100443.97
2023-01-19T08:00:24.934Z,100431.22
2023-01-19T08:03:00.541Z,100445.81
2023-01-19T08:05:36.071Z,100430.38
2023-01-19T08:08:06.343Z,100436.66
2023-01-19T08:10:36.498Z,100446.97
2023-01-19T08:13:06.818Z,100448.00
2023-01-19T08:15:37.729Z,100442.94
2023-01-19T08:18:10.030Z,100449.94
2023-01-19T08:20:40.171Z,100440.59
2023-01-19T08:23:10.865Z,100449.25
2023-01-19T08:25:44.595Z,100449.34
2023-01-19T08:28:16.956Z,100458.16
2023-01-19T08:30:54.176Z,100447.13
2023-01-19T08:33:25.468Z,100439.47
2023-01-19T08:35:55.673Z,100430.06
2023-01-19T08:38:25.921Z,100443.91
2023-01-19T08:40:56.044Z,100456.06
2023-01-19T08:43:26.203Z,100463.88
2023-01-19T08:45:56.618Z,100468.19
2023-01-19T08:48:26.756Z,100466.59
2023-01-19T08:50:57.331Z,100467.50
2023-01-19T08:53:27.605Z,100472.75
2023-01-19T08:56:01.443Z,100480.56
2023-01-19T08:58:31.615Z,100476.28
2023-01-19T09:01:03.208Z,100479.75
2023-01-19T09:03:35.743Z,100478.19
2023-01-19T09:06:07.463Z,100482.41
2023-01-19T09:08:37.711Z,100487.63
2023-01-19T09:11:11.715Z,100495.44
2023-01-19T09:13:41.990Z,100495.44
2023-01-19T09:16:13.534Z,100497.16
2023-01-19T09:18:45.264Z,100502.31
2023-01-19T09:21:15.415Z,100496.34
2023-01-19T09:23:45.583Z,100494.50
2023-01-19T09:26:16.239Z,100495.47
2023-01-19T09:28:46.399Z,100490.19
2023-01-19T09:31:16.672Z,100504.09
2023-01-19T09:33:46.982Z,100503.28
2023-01-19T09:36:17.264Z,100504.09
2023-01-19T09:38:47.484Z,100508.47
2023-01-19T09:41:22.534Z,100502.53
2023-01-19T09:43:58.687Z,100506.00
2023-01-19T09:46:28.953Z,100503.47
2023-01-19T09:49:05.071Z,100490.47
2023-01-19T09:51:41.581Z,100498.41
2023-01-19T09:54:19.531Z,100493.25
2023-01-19T09:56:52.455Z,100488.97
2023-01-19T09:59:30.242Z,100481.25
2023-01-19T10:02:06.296Z,100480.47
2023-01-19T10:04:54.806Z,100477.97
2023-01-19T10:07:58.598Z,100479.03
2023-01-19T10:10:36.128Z,100470.50
2023-01-19T10:13:24.962Z,100472.34
2023-01-19T10:16:10.015Z,100475.91
2023-01-19T10:18:51.782Z,100474.28
2023-01-19T10:21:28.236Z,100471.72
2023-01-19T10:24:06.927Z,100482.19
2023-01-19T10:26:47.568Z,100472.81
2023-01-19T10:29:23.520Z,100484.09
2023-01-19T10:32:17.607Z,100483.28
2023-01-19T10:34:49.350Z,100485.06
2023-01-19T10:37:37.258Z,100482.59
2023-01-19T10:40:10.287Z,100486.91
2023-01-19T10:42:41.935Z,100485.97
2023-01-19T10:45:25.978Z,100480.78
2023-01-19T10:48:00.902Z,100487.66
2023-01-19T10:50:34.135Z,100489.44
2023-01-19T10:53:06.375Z,100486.97
2023-01-19T10:55:40.404Z,100492.16
2023-01-19T10:58:31.683Z,100484.44
2023-01-19T11:01:23.588Z,100486.06
2023-01-19T11:03:56.100Z,100486.88
2023-01-19T11:06:30.956Z,100482.53
2023-01-19T11:09:27.233Z,100473.97
2023-01-19T11:12:00.001Z,100480.00
2023-01-19T11:14:31.429Z,100474.91
2023-01-19T11:17:01.635Z,100468.09
2023-01-19T11:19:33.841Z,100477.59
2023-01-19T11:22:22.962Z,100471.53
2023-01-19T11:24:53.358Z,100479.25
2023-01-19T11:27:34.847Z,100486.97
2023-01-19T11:30:26.347Z,100486.13
2023-01-19T11:32:56.940Z,100484.34
2023-01-19T11:35:39.647Z,100477.44
2023-01-19T11:38:12.694Z,100479.16
2023-01-19T11:40:53.253Z,100467.16
2023-01-19T11:43:25.453Z,100460.28
2023-01-19T11:45:57.558Z,100458.69
2023-01-19T11:48:36.272Z,100471.66
2023-01-19T11:51:14.373Z,100457.09
2023-01-19T11:53:49.415Z,100453.78
2023-01-19T11:56:26.341Z,100454.59
2023-01-19T11:58:56.904Z,100460.69
2023-01-19T12:01:35.756Z,100465.88
2023-01-19T12:04:16.724Z,100461.63
2023-01-19T12:06:54.143Z,100449.63
2023-01-19T12:09:39.032Z,100447.94
2023-01-19T12:12:23.026Z,100452.28
2023-01-19T12:14:55.968Z,100444.53
2023-01-19T12:17:40.883Z,100448.88
2023-01-19T12:20:38.689Z,100446.38
2023-01-19T12:23:11.825Z,100448.09
2023-01-19T12:26:23.191Z,100441.28
2023-01-19T12:28:58.800Z,100431.00
2023-01-19T12:31:29.126Z,100440.53
2023-01-19T12:34:25.264Z,100452.56
2023-01-19T12:36:57.546Z,100453.41
2023-01-19T12:39:27.770Z,100460.16
2023-01-19T12:42:13.403Z,100456.59
2023-01-19T12:44:47.200Z,100460.84
2023-01-19T12:47:24.608Z,100453.91
2023-01-19T12:50:05.927Z,100462.50
2023-01-19T12:52:51.737Z,100466.81
2023-01-19T12:55:31.241Z,100465.88
2023-01-19T12:58:07.221Z,100467.59
2023-01-19T13:00:40.140Z,100476.97
2023-01-19T13:03:16.354Z,100470.06
2023-01-19T13:05:52.828Z,100467.44
2023-01-19T13:08:25.594Z,100462.22
2023-01-19T13:11:11.033Z,100463.06
2023-01-19T13:14:05.424Z,100449.19
2023-01-19T13:16:35.509Z,100463.72
2023-01-19T13:19:05.625Z,100459.41
2023-01-19T13:21:45.771Z,100468.00
2023-01-19T13:24:19.188Z,100463.81
2023-01-19T13:26:49.267Z,100468.13
2023-01-19T13:29:30.722Z,100453.56
2023-01-19T13:32:04.972Z,100443.28
2023-01-19T13:34:47.898Z,100447.69
2023-01-19T13:37:26.178Z,100448.56
2023-01-19T13:39:57.244Z,100457.09
2023-01-19T13:42:35.805Z,100447.69
2023-01-19T13:45:27.679Z,100448.66
2023-01-19T13:48:02.173Z,100450.47
2023-01-19T13:50:36.095Z,100447.94
2023-01-19T13:53:20.886Z,100447.88
2023-01-19T13:56:20.898Z,100453.09
2023-01-19T13:59:07.246Z,100458.16
2023-01-19T14:01:40.067Z,100458.94
2023-01-19T14:04:35.602Z,100456.38
2023-01-19T14:07:13.401Z,100458.84
2023-01-19T14:09:43.723Z,100463.16
2023-01-19T14:12:17.678Z,100466.50
2023-01-19T14:14:48.451Z,100468.25
2023-01-19T14:17:23.837Z,100466.50
2023-01-19T14:19:57.435Z,100470.78
2023-01-19T14:22:49.245Z,100475.03
2023-01-19T14:25:31.771Z,100476.63
2023-01-19T14:28:35.593Z,100485.16
2023-01-19T14:31:23.144Z,100480.81
2023-01-19T14:33:55.619Z,100481.66
2023-01-19T14:36:26.058Z,100485.94
2023-01-19T14:38:59.421Z,100488.41
2023-01-19T14:41:35.509Z,100499.63
2023-01-19T14:44:11.656Z,100494.41
2023-01-19T14:46:48.131Z,100493.56
2023-01-19T14:49:36.686Z,100506.38
2023-01-19T14:52:20.908Z,100501.09
2023-01-19T14:54:52.065Z,100502.81
2023-01-19T14:57:22.520Z,100507.91
2023-01-19T14:59:57.144Z,100508.78
2023-01-19T15:02:32.918Z,100507.91
2023-01-19T15:05:06.404Z,100516.53
2023-01-19T15:07:39.105Z,100507.97
2023-01-19T15:10:22.755Z,100514.88
2023-01-19T15:12:55.084Z,100519.91
2023-01-19T15:15:33.293Z,100516.44
2023-01-19T15:18:05.047Z,100523.34
2023-01-19T15:20:35.151Z,100519.03
2023-01-19T15:23:05.373Z,100520.78
2023-01-19T15:25:35.635Z,100526.75
2023-01-19T15:28:11.778Z,100522.50
2023-01-19T15:30:41.963Z,100528.53
2023-01-19T15:33:20.996Z,100533.69
2023-01-19T15:35:51.732Z,100541.41
2023-01-19T15:38:22.527Z,100545.69
2023-01-19T15:40:52.764Z,100542.25
2023-01-19T15:43:22.932Z,100550.03
2023-01-19T15:46:02.770Z,100537.03
2023-01-19T15:48:35.781Z,100525.75
2023-01-19T15:51:06.199Z,100535.34
2023-01-19T15:53:36.396Z,100534.47
2023-01-19T15:56:07.159Z,100527.53
2023-01-19T15:58:38.438Z,100544.78
2023-01-19T16:01:15.478Z,100543.06
2023-01-19T16:03:46.301Z,100551.69
2023-01-19T16:06:18.003Z,100539.50
2023-01-19T16:08:48.127Z,100547.22
2023-01-19T16:11:18.839Z,100542.88
2023-01-19T16:13:48.957Z,100547.16
2023-01-19T16:16:21.842Z,100557.50
2023-01-19T16:18:52.379Z,100565.28
2023-01-19T16:21:22.681Z,100566.13
2023-01-19T16:23:53.770Z,100558.41
2023-01-19T16:26:34.693Z,100577.28
2023-01-19T16:29:09.468Z,100581.56
2023-01-19T16:31:41.804Z,100580.75
2023-01-19T16:34:12.016Z,100569.41
2023-01-19T16:36:43.612Z,100581.56
2023-01-19T16:39:15.284Z,100571.28
2023-01-19T16:41:45.916Z,100578.13
2023-01-19T16:44:16.862Z,100578.97
2023-01-19T16:46:49.949Z,100578.09
2023-01-19T16:49:23.099Z,100568.66
2023-01-19T16:51:58.554Z,100579.81
2023-01-19T16:54:29.426Z,100589.22
2023-01-19T16:56:59.662Z,100580.66
2023-01-19T16:59:29.958Z,100575.47
2023-01-19T17:02:00.445Z,100575.53
2023-01-19T17:04:30.865Z,100573.75
2023-01-19T17:07:01.003Z,100570.31
2023-01-19T17:09:31.619Z,100567.75
2023-01-19T17:12:01.874Z,100570.38
2023-01-19T17:14:32.510Z,100574.66
2023-01-19T17:17:02.770Z,100573.78
2023-01-19T17:19:32.967Z,100580.66
2023-01-19T17:22:03.065Z,100584.91
2023-01-19T17:24:33.701Z,100581.47
2023-01-19T17:27:03.948Z,100586.59
2023-01-19T17:29:34.344Z,100591.66
2023-01-19T17:32:07.376Z,100585.59
2023-01-19T17:34:37.669Z,100595.00
2023-01-19T17:37:07.801Z,100593.31
2023-01-19T17:39:37.922Z,100588.09
2023-01-19T17:42:08.079Z,100586.41
2023-01-19T17:44:38.262Z,100595.03
2023-01-19T17:47:08.453Z,100578.75
2023-01-19T17:49:38.684Z,100591.66
2023-01-19T17:52:09.792Z,100587.38
2023-01-19T17:54:40.050Z,100594.22
2023-01-19T17:57:10.179Z,100592.47
2023-01-19T17:59:43.863Z,100589.88
2023-01-19T18:02:14.469Z,100591.66
2023-01-19T18:04:44.789Z,100597.59
2023-01-19T18:07:15.643Z,100589.09
2023-01-19T18:09:46.039Z,100594.22
2023-01-19T18:12:20.255Z,100592.50
2023-01-19T18:14:51.067Z,100594.22
2023-01-19T18:17:21.204Z,100591.66
2023-01-19T18:19:51.546Z,100574.16
2023-01-19T18:22:21.759Z,100589.78
2023-01-19T18:24:52.414Z,100581.13
2023-01-19T18:27:23.033Z,100581.03
2023-01-19T18:29:53.193Z,100596.69
2023-01-19T18:32:25.250Z,100594.06
2023-01-19T18:34:58.310Z,100595.75
2023-01-19T18:37:35.230Z,100600.06
2023-01-19T18:40:05.860Z,100589.72
2023-01-19T18:42:36.009Z,100592.31
2023-01-19T18:45:06.786Z,100594.00
2023-01-19T18:47:37.007Z,100588.03
2023-01-19T18:50:07.440Z,100588.13
2023-01-19T18:52:37.674Z,100597.56
2023-01-19T18:55:08.221Z,100593.31
2023-01-19T18:57:38.603Z,100587.25
2023-01-19T19:00:09.204Z,100590.75
2023-01-19T19:02:39.369Z,100590.75
2023-01-19T19:05:09.798Z,100576.88
2023-01-19T19:07:39.968Z,100587.25
2023-01-19T19:10:11.057Z,100596.78
2023-01-19T19:12:41.501Z,100598.47
2023-01-19T19:15:12.029Z,100591.66
2023-01-19T19:17:42.213Z,100583.94
2023-01-19T19:20:13.069Z,100574.38
2023-01-19T19:22:43.379Z,100589.09
2023-01-19T19:25:13.565Z,100590.00
2023-01-19T19:27:45.579Z,100585.66
2023-01-19T19:30:16.094Z,100587.38
2023-01-19T19:32:51.507Z,100588.22
2023-01-19T19:35:22.604Z,100582.19
2023-01-19T19:37:57.647Z,100592.56
2023-01-19T19:40:28.349Z,100586.47
2023-01-19T19:42:58.928Z,100593.41
2023-01-19T19:45:29.183Z,100595.94
2023-01-19T19:47:59.334Z,100597.66
2023-01-19T19:50:29.384Z,100606.28
2023-01-19T19:53:00.435Z,100606.34
2023-01-19T19:55:30.652Z,100601.94
2023-01-19T19:58:00.880Z,100608.91
2023-01-19T20:00:31.215Z,100607.19
2023-01-19T20:03:02.306Z,100613.19
2023-01-19T20:05:35.974Z,100613.19
2023-01-19T20:08:06.139Z,100610.72
2023-01-19T20:10:37.648Z,100610.78
2023-01-19T20:13:09.282Z,100604.75
2023-01-19T20:15:39.699Z,100603.00
2023-01-19T20:18:09.953Z,100602.19
2023-01-19T20:20:40.136Z,100605.66
2023-01-19T20:23:10.391Z,100603.91
2023-01-19T20:25:40.546Z,100602.25
2023-01-19T20:28:10.639Z,100608.25
2023-01-19T20:30:40.843Z,100609.09
2023-01-19T20:33:11.765Z,100611.66
2023-01-19T20:35:42.019Z,100606.47
2023-01-19T20:38:12.216Z,100610.78
2023-01-19T20:40:42.431Z,100611.63
2023-01-19T20:43:12.618Z,100609.06
2023-01-19T20:45:42.949Z,100609.91
2023-01-19T20:48:13.201Z,100603.00
2023-01-19T20:50:43.392Z,100613.38
2023-01-19T20:53:13.890Z,100607.28
2023-01-19T20:55:44.285Z,100604.72
2023-01-19T20:58:14.761Z,100617.56
2023-01-19T21:00:46.115Z,100612.38
2023-01-19T21:03:17.096Z,100609.81
2023-01-19T21:05:48.691Z,100596.00
2023-01-19T21:08:18.944Z,100602.84
2023-01-19T21:10:49.122Z,100610.63
2023-01-19T21:13:19.234Z,100592.53
2023-01-19T21:15:49.401Z,100598.56
2023-01-19T21:18:19.797Z,100610.63
2023-01-19T21:20:50.113Z,100617.41
2023-01-19T21:23:21.520Z,100619.94
2023-01-19T21:25:57.311Z,100621.63
2023-01-19T21:28:28.817Z,100633.66
2023-01-19T21:31:06.368Z,100628.47
2023-01-19T21:33:36.538Z,100629.22
2023-01-19T21:36:07.065Z,100637.03
2023-01-19T21:38:38.295Z,100631.88
2023-01-19T21:41:12.789Z,100627.59
2023-01-19T21:43:43.378Z,100644.75
2023-01-19T21:46:29.671Z,100636.22
2023-01-19T21:49:02.266Z,100640.47
2023-01-19T21:51:35.035Z,100645.66
2023-01-19T21:54:06.830Z,100642.19
2023-01-19T21:56:38.251Z,100640.50
2023-01-19T21:59:08.448Z,100644.00
2023-01-19T22:01:38.700Z,100644.84
2023-01-19T22:04:10.320Z,100644.81
2023-01-19T22:06:49.142Z,100644.84
2023-01-19T22:09:23.685Z,100649.09
2023-01-19T22:11:53.913Z,100661.09
2023-01-19T22:14:24.283Z,100648.22
2023-01-19T22:16:54.566Z,100662.81
2023-01-19T22:19:24.805Z,100649.09
2023-01-19T22:21:54.982Z,100657.72
2023-01-19T22:24:25.078Z,100656.88
2023-01-19T22:26:55.669Z,100668.06
2023-01-19T22:29:25.825Z,100667.25
2023-01-19T22:31:56.034Z,100662.06
2023-01-19T22:34:26.392Z,100667.22
2023-01-19T22:36:56.613Z,100674.16
2023-01-19T22:39:27.321Z,100672.44
2023-01-19T22:41:57.448Z,100669.88
2023-01-19T22:44:27.625Z,100675.88
2023-01-19T22:46:57.791Z,100676.75
2023-01-19T22:49:28.324Z,100679.31
2023-01-19T22:51:58.440Z,100679.31
2023-01-19T22:54:30.055Z,100692.19
2023-01-19T22:57:00.320Z,100691.31
2023-01-19T22:59:30.481Z,100694.78
2023-01-19T23:02:00.708Z,100689.66
2023-01-19T23:04:30.881Z,100691.41
2023-01-19T23:07:01.007Z,100682.75
2023-01-19T23:09:31.221Z,100689.69
2023-01-19T23:12:01.424Z,100698.31
2023-01-19T23:14:31.571Z,100691.38
2023-01-19T23:17:01.781Z,100696.53
2023-01-19T23:19:31.935Z,100699.94
2023-01-19T23:22:02.099Z,100702.50
2023-01-19T23:24:32.275Z,100709.44
2023-01-19T23:27:02.788Z,100705.91
2023-01-19T23:29:32.954Z,100712.84
2023-01-19T23:32:03.893Z,100708.53
2023-01-19T23:34:34.003Z,100716.25
2023-01-19T23:37:04.109Z,100713.72
2023-01-19T23:39:34.215Z,100716.28
2023-01-19T23:42:05.274Z,100720.59
2023-01-19T23:44:35.932Z,100724.91
2023-01-19T23:47:06.056Z,100720.59
2023-01-19T23:49:36.249Z,100726.63
2023-01-19T23:52:06.349Z,100729.22
2023-01-19T23:54:36.640Z,100730.19
2023-01-19T23:57:06.779Z,100741.28
2023-01-19T23:59:37.162Z,100742.00
